Terminal Aerodrome Forecast
Issued by NWS

Current Version | Previous Version | Text Only | Print | Product List | Glossary Off
Versions: 1 2 3 4 5 6 7 8 9 10 11 12 13 14 15 16 17 18 19 20 21 22 23

000
FTUS41 KRLX 282300
TAFCKB
TAF
KCKB 282339Z 2900/2924 22008G15KT 5SM -SHRA BKN040
      TEMPO 2901/2902 28008G15KT 2SM SHRA BR BKN020
     FM290300 26006KT 5SM -SHRA BR BKN025
     FM290600 27006KT 6SM BR BKN035
     FM290900 26005KT P6SM BKN050
     FM291200 25005KT P6SM BKN080
     FM291500 25008G17KT P6SM SCT050
     FM292300 27008KT P6SM BKN040=

USA.gov is the U.S. government's official web portal to all federal, state and local government web resources and services.